Time;durP1;ratioP1;P1;durP2;ratioP2;P2;SDS_P1;SDS_P2;PMS_P1;PMS_P2;Temp;Humidity;BMP_temperature;BMP_pressure;BME280_temperature;BME280_humidity;BME280_pressure;Samples;Min_cycle;Max_cycle;Signal;HPM_P1;HPM_P2
2022/07/23 00:01:38;;;;;;;5.47;4.30;;;;;;;;;;4993059;28;20480;-52
2022/07/23 00:04:04;;;;;;;5.53;4.67;;;;;;;;;;4993525;28;20856;-54
2022/07/23 00:06:31;;;;;;;5.22;4.20;;;;;;;;;;4993740;28;20904;-54
2022/07/23 00:08:57;;;;;;;6.43;4.47;;;;;;;;;;4993760;28;20414;-53
2022/07/23 00:11:23;;;;;;;4.97;4.30;;;;;;;;;;4992850;28;20912;-54
2022/07/23 00:13:49;;;;;;;6.13;4.40;;;;;;;;;;4993147;28;20438;-54
2022/07/23 00:16:15;;;;;;;5.95;4.22;;;;;;;;;;4993747;28;20421;-53
2022/07/23 00:18:41;;;;;;;6.10;4.20;;;;;;;;;;4993601;28;20409;-53
2022/07/23 00:21:07;;;;;;;6.35;4.40;;;;;;;;;;4993460;28;20426;-54
2022/07/23 00:23:35;;;;;;;11.30;4.40;;;;;;;;;;4993539;28;20398;-53
2022/07/23 00:26:01;;;;;;;4.70;4.22;;;;;;;;;;4993674;28;20460;-54
2022/07/23 00:28:27;;;;;;;6.45;4.50;;;;;;;;;;4993567;28;20409;-54
2022/07/23 00:30:53;;;;;;;5.60;4.60;;;;;;;;;;4993333;28;20802;-53
2022/07/23 00:33:19;;;;;;;5.70;4.40;;;;;;;;;;4993437;28;20881;-54
2022/07/23 00:35:45;;;;;;;5.40;4.40;;;;;;;;;;4993306;28;20417;-53
2022/07/23 00:38:11;;;;;;;6.70;4.70;;;;;;;;;;4993240;28;20406;-53
2022/07/23 00:40:39;;;;;;;5.30;4.15;;;;;;;;;;4993060;28;20443;-53
2022/07/23 00:43:05;;;;;;;4.68;4.10;;;;;;;;;;4993308;28;20418;-54
2022/07/23 00:45:31;;;;;;;5.22;4.28;;;;;;;;;;4993255;28;20942;-53
2022/07/23 00:47:57;;;;;;;5.57;4.47;;;;;;;;;;4992863;28;20425;-52
2022/07/23 00:50:23;;;;;;;4.50;4.05;;;;;;;;;;4993050;28;20410;-53
2022/07/23 00:52:49;;;;;;;4.97;4.38;;;;;;;;;;4992880;28;20411;-53
2022/07/23 00:55:15;;;;;;;4.97;4.20;;;;;;;;;;4992840;28;20881;-52
2022/07/23 00:57:43;;;;;;;4.60;4.10;;;;;;;;;;4992621;28;20414;-54
2022/07/23 01:00:10;;;;;;;6.53;4.53;;;;;;;;;;4992628;28;20413;-54
2022/07/23 01:02:36;;;;;;;6.70;4.30;;;;;;;;;;4992342;28;20458;-52
2022/07/23 01:05:03;;;;;;;5.78;4.35;;;;;;;;;;4992354;28;20478;-53
2022/07/23 01:07:29;;;;;;;6.75;4.78;;;;;;;;;;4992592;28;20418;-53
2022/07/23 01:09:56;;;;;;;6.18;4.53;;;;;;;;;;4992248;28;20765;-53
2022/07/23 01:12:22;;;;;;;6.60;4.78;;;;;;;;;;4992372;28;20657;-53
2022/07/23 01:14:55;;;;;;;5.75;4.60;;;;;;;;;;4992118;28;20923;-52
2022/07/23 01:17:21;;;;;;;5.13;4.07;;;;;;;;;;4992286;28;20523;-53
2022/07/23 01:19:47;;;;;;;5.40;4.40;;;;;;;;;;4992262;28;20494;-53
2022/07/23 01:22:14;;;;;;;5.43;4.70;;;;;;;;;;4992068;28;20976;-54
2022/07/23 01:24:41;;;;;;;6.27;4.53;;;;;;;;;;4991737;28;20422;-53
2022/07/23 01:27:07;;;;;;;5.13;4.18;;;;;;;;;;4992110;28;20456;-54
2022/07/23 01:29:33;;;;;;;5.28;4.53;;;;;;;;;;4992298;28;20410;-54
2022/07/23 01:31:59;;;;;;;6.70;4.72;;;;;;;;;;4992039;28;20410;-53
2022/07/23 01:34:25;;;;;;;4.78;4.05;;;;;;;;;;4991940;28;20410;-52
2022/07/23 01:36:51;;;;;;;4.90;4.50;;;;;;;;;;4991776;28;20406;-53
2022/07/23 01:39:17;;;;;;;5.30;4.80;;;;;;;;;;4991605;28;20478;-53
2022/07/23 01:41:46;;;;;;;6.43;4.82;;;;;;;;;;4991614;28;20499;-52
2022/07/23 01:44:11;;;;;;;5.43;4.90;;;;;;;;;;4991695;28;20750;-52
2022/07/23 01:46:38;;;;;;;6.93;5.00;;;;;;;;;;4991558;28;20473;-55
2022/07/23 01:49:04;;;;;;;5.30;4.60;;;;;;;;;;4991443;28;20900;-53
2022/07/23 01:51:30;;;;;;;5.75;4.65;;;;;;;;;;4991809;28;20520;-52
2022/07/23 01:53:56;;;;;;;6.68;4.30;;;;;;;;;;4991471;28;20442;-52
2022/07/23 01:56:22;;;;;;;7.32;4.60;;;;;;;;;;4991339;28;20438;-52
2022/07/23 01:58:50;;;;;;;4.93;4.53;;;;;;;;;;4991465;28;20433;-52
2022/07/23 02:01:16;;;;;;;5.15;4.35;;;;;;;;;;4991713;28;20467;-51
2022/07/23 02:03:42;;;;;;;6.32;4.78;;;;;;;;;;4991422;28;20418;-51
2022/07/23 02:06:08;;;;;;;6.45;5.00;;;;;;;;;;4991616;28;20513;-52
2022/07/23 02:08:34;;;;;;;6.82;4.72;;;;;;;;;;4991531;28;20403;-52
2022/07/23 02:11:00;;;;;;;5.57;4.57;;;;;;;;;;4991317;28;20422;-54
2022/07/23 02:13:29;;;;;;;5.93;5.00;;;;;;;;;;4991659;28;20754;-53
2022/07/23 02:15:56;;;;;;;6.68;4.70;;;;;;;;;;4991439;28;20994;-52
2022/07/23 02:18:22;;;;;;;6.23;4.90;;;;;;;;;;4991560;28;20965;-53
2022/07/23 02:20:48;;;;;;;5.90;4.60;;;;;;;;;;4991280;28;20936;-52
2022/07/23 02:23:14;;;;;;;6.00;4.90;;;;;;;;;;4991568;28;20760;-52
2022/07/23 02:25:40;;;;;;;5.43;4.75;;;;;;;;;;4991450;28;20473;-52
2022/07/23 02:28:06;;;;;;;6.35;4.60;;;;;;;;;;4991475;28;20497;-51
2022/07/23 02:30:32;;;;;;;5.95;4.82;;;;;;;;;;4991493;28;20417;-52
2022/07/23 02:32:59;;;;;;;5.80;4.70;;;;;;;;;;4991536;28;20873;-54
2022/07/23 02:35:25;;;;;;;8.25;4.97;;;;;;;;;;4990476;28;20809;-51
2022/07/23 02:37:51;;;;;;;10.02;5.80;;;;;;;;;;4991086;28;20418;-49
2022/07/23 02:40:18;;;;;;;5.85;4.70;;;;;;;;;;4991316;28;20446;-51
2022/07/23 02:42:44;;;;;;;5.47;4.93;;;;;;;;;;4991356;28;20877;-51
2022/07/23 02:45:10;;;;;;;6.93;5.10;;;;;;;;;;4990943;28;20885;-50
2022/07/23 02:47:36;;;;;;;5.63;4.78;;;;;;;;;;4990862;28;20518;-50
2022/07/23 02:50:05;;;;;;;5.55;4.82;;;;;;;;;;4991283;28;20437;-50
2022/07/23 02:52:31;;;;;;;6.28;4.60;;;;;;;;;;4991258;28;20803;-50
2022/07/23 02:54:57;;;;;;;5.72;5.10;;;;;;;;;;4991047;28;20530;-49
2022/07/23 02:57:25;;;;;;;5.82;4.30;;;;;;;;;;4991049;28;20410;-50
2022/07/23 02:59:51;;;;;;;6.25;5.30;;;;;;;;;;4991021;28;20443;-48
2022/07/23 03:02:17;;;;;;;6.17;5.30;;;;;;;;;;4991029;28;20418;-47
2022/07/23 03:04:43;;;;;;;7.60;5.10;;;;;;;;;;4991106;28;20407;-48
2022/07/23 03:07:11;;;;;;;7.57;5.47;;;;;;;;;;4991168;28;20488;-49
2022/07/23 03:09:37;;;;;;;8.38;6.30;;;;;;;;;;4990950;28;20679;-48
2022/07/23 03:12:03;;;;;;;8.30;5.90;;;;;;;;;;4990979;28;20533;-51
2022/07/23 03:14:29;;;;;;;8.07;6.47;;;;;;;;;;4991225;28;20402;-51
2022/07/23 03:16:55;;;;;;;10.35;6.68;;;;;;;;;;4990826;28;20505;-51
2022/07/23 03:19:21;;;;;;;8.37;6.07;;;;;;;;;;4990861;28;20405;-51
2022/07/23 03:21:47;;;;;;;8.07;6.03;;;;;;;;;;4990800;28;20777;-52
2022/07/23 03:24:14;;;;;;;7.85;6.10;;;;;;;;;;4990854;28;20492;-51
2022/07/23 03:26:40;;;;;;;7.88;6.03;;;;;;;;;;4990736;28;20892;-52
2022/07/23 03:29:07;;;;;;;8.93;6.15;;;;;;;;;;4990705;28;20427;-49
2022/07/23 03:31:33;;;;;;;8.70;6.22;;;;;;;;;;4990855;28;20399;-51
2022/07/23 03:33:59;;;;;;;8.87;6.50;;;;;;;;;;4990736;28;20421;-51
2022/07/23 03:36:25;;;;;;;8.18;6.60;;;;;;;;;;4990762;28;20414;-50
2022/07/23 03:38:51;;;;;;;7.47;6.75;;;;;;;;;;4990639;28;20414;-52
2022/07/23 03:41:19;;;;;;;9.25;6.63;;;;;;;;;;4990639;28;20894;-52
2022/07/23 03:43:45;;;;;;;7.57;6.78;;;;;;;;;;4990749;28;20406;-51
2022/07/23 03:46:11;;;;;;;8.23;6.75;;;;;;;;;;4990970;28;20410;-50
2022/07/23 03:48:37;;;;;;;7.35;6.10;;;;;;;;;;4994208;28;20437;-52
2022/07/23 03:51:03;;;;;;;7.18;6.40;;;;;;;;;;4994056;28;20403;-52
2022/07/23 03:53:29;;;;;;;7.53;5.80;;;;;;;;;;4994365;28;20451;-51
2022/07/23 03:55:55;;;;;;;7.47;6.10;;;;;;;;;;4994094;28;20417;-52
2022/07/23 03:58:22;;;;;;;6.85;6.07;;;;;;;;;;4994205;28;20822;-52
2022/07/23 04:00:48;;;;;;;6.30;5.70;;;;;;;;;;4993995;28;20784;-52
2022/07/23 04:03:14;;;;;;;5.80;5.20;;;;;;;;;;4993951;28;20403;-52
2022/07/23 04:05:40;;;;;;;6.55;5.75;;;;;;;;;;4993904;28;20413;-52
2022/07/23 04:08:06;;;;;;;6.40;5.80;;;;;;;;;;4993787;28;20442;-51
2022/07/23 04:10:32;;;;;;;6.75;5.82;;;;;;;;;;4993987;28;20493;-52
2022/07/23 04:12:58;;;;;;;6.50;5.50;;;;;;;;;;4993794;28;20406;-51
2022/07/23 04:15:25;;;;;;;6.63;5.75;;;;;;;;;;4993919;28;20935;-51
2022/07/23 04:17:51;;;;;;;5.43;4.80;;;;;;;;;;4993719;28;20425;-52
2022/07/23 04:20:17;;;;;;;6.60;5.50;;;;;;;;;;4993792;28;20418;-52
2022/07/23 04:22:43;;;;;;;7.70;5.63;;;;;;;;;;4993734;28;20505;-51
2022/07/23 04:25:09;;;;;;;8.80;6.60;;;;;;;;;;4993548;28;20415;-51
2022/07/23 04:27:35;;;;;;;8.37;6.80;;;;;;;;;;4993638;28;20403;-52
2022/07/23 04:30:01;;;;;;;7.10;6.07;;;;;;;;;;4993598;28;20418;-51
2022/07/23 04:32:28;;;;;;;7.50;6.43;;;;;;;;;;4993700;28;20422;-52
2022/07/23 04:34:54;;;;;;;8.10;6.10;;;;;;;;;;4993359;28;20407;-51
2022/07/23 04:37:20;;;;;;;6.20;5.40;;;;;;;;;;4993412;28;20880;-52
2022/07/23 04:39:46;;;;;;;7.75;6.28;;;;;;;;;;4993480;28;20412;-52
2022/07/23 04:42:12;;;;;;;8.90;6.50;;;;;;;;;;4993092;28;20434;-51
2022/07/23 04:44:38;;;;;;;7.30;6.60;;;;;;;;;;4993179;28;20422;-52
2022/07/23 04:47:04;;;;;;;7.45;6.45;;;;;;;;;;4992888;28;20430;-52
2022/07/23 04:49:32;;;;;;;7.35;6.65;;;;;;;;;;4993181;28;20825;-51
2022/07/23 04:51:58;;;;;;;9.18;6.72;;;;;;;;;;4993103;28;20406;-52
2022/07/23 04:54:24;;;;;;;7.88;6.60;;;;;;;;;;4993163;28;20820;-51
2022/07/23 04:56:50;;;;;;;8.63;7.40;;;;;;;;;;4993049;28;20502;-52
2022/07/23 04:59:16;;;;;;;9.10;7.28;;;;;;;;;;4992211;28;20398;-52
2022/07/23 05:01:42;;;;;;;9.20;6.78;;;;;;;;;;4992927;28;20426;-52
2022/07/23 05:04:08;;;;;;;7.93;7.22;;;;;;;;;;4992753;28;20657;-52
2022/07/23 05:06:35;;;;;;;8.55;7.63;;;;;;;;;;4992903;28;20406;-51
2022/07/23 05:09:01;;;;;;;8.20;7.50;;;;;;;;;;4992818;28;20507;-52
2022/07/23 05:11:27;;;;;;;10.63;7.78;;;;;;;;;;4992642;28;20403;-52
2022/07/23 05:13:53;;;;;;;8.93;7.10;;;;;;;;;;4992717;28;20535;-52
2022/07/23 05:16:19;;;;;;;10.95;7.55;;;;;;;;;;4992627;28;20416;-52
2022/07/23 05:18:45;;;;;;;8.60;7.75;;;;;;;;;;4992684;28;20402;-52
2022/07/23 05:21:11;;;;;;;10.70;7.65;;;;;;;;;;4992403;28;20913;-51
2022/07/23 05:23:38;;;;;;;7.88;6.95;;;;;;;;;;4992564;28;20414;-51
2022/07/23 05:26:04;;;;;;;9.95;7.30;;;;;;;;;;4992297;28;20505;-52
2022/07/23 05:28:30;;;;;;;8.93;7.43;;;;;;;;;;4992508;28;20455;-51
2022/07/23 05:30:56;;;;;;;8.27;7.30;;;;;;;;;;4992352;28;20406;-52
2022/07/23 05:33:22;;;;;;;7.63;6.85;;;;;;;;;;4992422;28;20817;-52
2022/07/23 05:35:48;;;;;;;8.07;7.10;;;;;;;;;;4992270;28;20418;-52
2022/07/23 05:38:14;;;;;;;7.28;6.57;;;;;;;;;;4992159;28;20411;-52
2022/07/23 05:40:41;;;;;;;7.18;6.47;;;;;;;;;;4992175;28;20407;-51
2022/07/23 05:43:07;;;;;;;8.23;6.80;;;;;;;;;;4991996;28;20417;-52
2022/07/23 05:45:33;;;;;;;9.13;6.47;;;;;;;;;;4992139;28;20801;-52
2022/07/23 05:47:59;;;;;;;7.00;6.32;;;;;;;;;;4992040;28;20440;-52
2022/07/23 05:50:25;;;;;;;9.77;6.47;;;;;;;;;;4992105;28;20468;-52
2022/07/23 05:52:51;;;;;;;7.10;6.22;;;;;;;;;;4991944;28;20411;-52
2022/07/23 05:55:17;;;;;;;8.10;5.60;;;;;;;;;;4992030;28;20824;-53
2022/07/23 05:57:44;;;;;;;7.30;5.65;;;;;;;;;;4991934;28;20453;-52
2022/07/23 06:00:11;;;;;;;7.78;5.30;;;;;;;;;;4991724;28;20773;-53
2022/07/23 06:02:37;;;;;;;8.85;5.20;;;;;;;;;;4991729;28;20434;-52
2022/07/23 06:05:04;;;;;;;8.18;4.63;;;;;;;;;;4991721;28;20802;-53
2022/07/23 06:07:30;;;;;;;6.28;4.55;;;;;;;;;;4991969;28;20421;-53
2022/07/23 06:09:56;;;;;;;7.25;4.25;;;;;;;;;;4991671;28;20876;-53
2022/07/23 06:12:22;;;;;;;13.07;4.78;;;;;;;;;;4991517;28;20406;-53
2022/07/23 06:14:49;;;;;;;6.32;3.70;;;;;;;;;;4991455;28;20402;-53
2022/07/23 06:17:15;;;;;;;4.80;2.88;;;;;;;;;;4991257;28;20413;-53
2022/07/23 06:19:41;;;;;;;6.55;3.17;;;;;;;;;;4991310;28;20465;-52
2022/07/23 06:22:07;;;;;;;6.80;3.83;;;;;;;;;;4991286;28;20426;-53
2022/07/23 06:24:33;;;;;;;5.47;3.43;;;;;;;;;;4991511;28;20403;-53
2022/07/23 06:26:59;;;;;;;7.88;3.60;;;;;;;;;;4991319;28;20781;-53
2022/07/23 06:29:25;;;;;;;6.45;3.28;;;;;;;;;;4991232;28;20418;-53
2022/07/23 06:31:52;;;;;;;6.10;3.33;;;;;;;;;;4991258;28;20410;-53
2022/07/23 06:34:18;;;;;;;6.60;3.07;;;;;;;;;;4991519;28;20409;-54
2022/07/23 06:36:44;;;;;;;6.05;3.10;;;;;;;;;;4991463;28;20410;-53
2022/07/23 06:39:10;;;;;;;6.97;3.10;;;;;;;;;;4991204;28;20437;-53
2022/07/23 06:41:36;;;;;;;4.47;2.67;;;;;;;;;;4991067;28;20780;-53
2022/07/23 06:44:02;;;;;;;5.40;2.92;;;;;;;;;;4991097;28;20414;-54
2022/07/23 06:46:28;;;;;;;5.97;3.00;;;;;;;;;;4991161;28;20455;-54
2022/07/23 06:48:56;;;;;;;4.57;2.45;;;;;;;;;;4991048;28;20813;-53
2022/07/23 06:51:22;;;;;;;7.07;3.20;;;;;;;;;;4991089;28;20829;-53
2022/07/23 06:53:48;;;;;;;6.97;2.95;;;;;;;;;;4991174;28;20498;-53
2022/07/23 06:56:14;;;;;;;6.65;2.78;;;;;;;;;;4991108;28;20405;-53
2022/07/23 06:58:40;;;;;;;5.45;2.72;;;;;;;;;;4991199;28;20405;-53
2022/07/23 07:01:06;;;;;;;3.63;2.40;;;;;;;;;;4990894;28;20505;-53
2022/07/23 07:03:32;;;;;;;4.60;2.30;;;;;;;;;;4992316;28;20276;-53
2022/07/23 07:05:59;;;;;;;6.53;2.53;;;;;;;;;;4992416;28;20229;-53
2022/07/23 07:08:25;;;;;;;8.60;2.83;;;;;;;;;;4991997;28;20206;-54
2022/07/23 07:10:51;;;;;;;4.23;2.70;;;;;;;;;;4991999;28;20256;-53
2022/07/23 07:13:17;;;;;;;4.83;2.27;;;;;;;;;;4992135;28;20201;-53
2022/07/23 07:15:43;;;;;;;5.70;2.40;;;;;;;;;;4991825;28;20620;-53
2022/07/23 07:18:09;;;;;;;4.03;2.10;;;;;;;;;;4992009;28;20228;-53
2022/07/23 07:20:35;;;;;;;3.37;1.97;;;;;;;;;;4991947;28;20622;-53
2022/07/23 07:23:02;;;;;;;8.50;2.13;;;;;;;;;;4995831;28;20285;-53
2022/07/23 07:25:29;;;;;;;5.13;2.20;;;;;;;;;;4995941;28;20214;-53
2022/07/23 07:27:54;;;;;;;4.23;2.03;;;;;;;;;;4995907;28;20208;-53
2022/07/23 07:30:20;;;;;;;4.83;2.17;;;;;;;;;;4995757;28;20281;-53
2022/07/23 07:32:46;;;;;;;5.10;2.33;;;;;;;;;;4995899;28;20202;-53
2022/07/23 07:35:13;;;;;;;3.80;1.83;;;;;;;;;;4995599;28;20213;-54
2022/07/23 07:37:39;;;;;;;3.40;2.00;;;;;;;;;;4995802;28;20362;-54
2022/07/23 07:40:07;;;;;;;2.67;2.10;;;;;;;;;;4995608;28;20618;-53
2022/07/23 07:42:33;;;;;;;6.07;2.10;;;;;;;;;;4995471;28;20700;-54
2022/07/23 07:44:59;;;;;;;4.70;2.23;;;;;;;;;;4995557;28;20253;-54
2022/07/23 07:47:25;;;;;;;6.10;2.00;;;;;;;;;;4995155;28;20235;-53
2022/07/23 07:49:51;;;;;;;3.20;2.27;;;;;;;;;;4995550;28;20210;-54
2022/07/23 07:52:17;;;;;;;4.50;1.73;;;;;;;;;;4995451;28;20212;-54
2022/07/23 07:54:43;;;;;;;5.17;2.30;;;;;;;;;;4995626;28;20206;-53
2022/07/23 07:57:10;;;;;;;3.93;2.10;;;;;;;;;;4995246;28;20202;-53
2022/07/23 07:59:36;;;;;;;4.80;2.00;;;;;;;;;;4994926;28;20610;-53
2022/07/23 08:02:02;;;;;;;5.57;1.90;;;;;;;;;;4995046;28;20700;-54
2022/07/23 08:04:28;;;;;;;3.10;1.87;;;;;;;;;;4994853;28;20611;-54
2022/07/23 08:06:54;;;;;;;3.17;2.10;;;;;;;;;;4995037;28;20675;-53
2022/07/23 08:09:20;;;;;;;2.30;1.53;;;;;;;;;;4994968;28;20202;-55
2022/07/23 08:11:46;;;;;;;3.23;1.70;;;;;;;;;;4995237;28;20249;-56
2022/07/23 08:14:14;;;;;;;4.00;2.00;;;;;;;;;;4995044;28;20202;-55
2022/07/23 08:16:40;;;;;;;4.97;1.77;;;;;;;;;;4994844;28;20229;-55
2022/07/23 08:19:06;;;;;;;7.97;1.93;;;;;;;;;;4994741;28;20677;-55
2022/07/23 08:21:32;;;;;;;5.50;2.23;;;;;;;;;;4994657;28;20230;-55
2022/07/23 08:23:58;;;;;;;3.30;1.80;;;;;;;;;;4994993;28;20561;-55
2022/07/23 08:26:24;;;;;;;4.13;1.70;;;;;;;;;;4994675;28;20198;-55
2022/07/23 08:28:50;;;;;;;3.33;1.73;;;;;;;;;;4994908;28;20292;-55
2022/07/23 08:31:18;;;;;;;4.47;1.80;;;;;;;;;;4994859;28;20216;-55
2022/07/23 08:33:44;;;;;;;3.50;1.50;;;;;;;;;;4993690;28;20211;-55
2022/07/23 08:36:10;;;;;;;2.83;1.70;;;;;;;;;;4994649;28;20202;-55
2022/07/23 08:38:36;;;;;;;5.83;1.90;;;;;;;;;;4994680;28;20686;-56
2022/07/23 08:41:04;;;;;;;3.03;1.60;;;;;;;;;;4994606;28;20252;-55
2022/07/23 08:43:31;;;;;;;3.40;1.50;;;;;;;;;;4994507;28;20207;-55
2022/07/23 08:45:58;;;;;;;5.00;1.70;;;;;;;;;;4994395;28;20198;-56
2022/07/23 08:48:26;;;;;;;5.60;1.67;;;;;;;;;;4994421;28;20674;-56
2022/07/23 08:50:54;;;;;;;3.87;1.87;;;;;;;;;;4994291;28;20213;-56
2022/07/23 08:53:21;;;;;;;2.37;1.57;;;;;;;;;;4994329;28;20206;-56
2022/07/23 08:55:47;;;;;;;4.20;1.80;;;;;;;;;;4994625;28;20285;-56
2022/07/23 08:58:13;;;;;;;2.33;1.80;;;;;;;;;;4994444;28;20202;-56
2022/07/23 09:00:39;;;;;;;8.30;1.67;;;;;;;;;;4994253;28;20206;-57
2022/07/23 09:03:05;;;;;;;4.27;1.70;;;;;;;;;;4993991;28;20292;-56
2022/07/23 09:05:32;;;;;;;2.07;1.20;;;;;;;;;;4992549;28;20964;-56
2022/07/23 09:08:09;;;;;;;1.57;1.20;;;;;;;;;;4994138;28;20229;-57
2022/07/23 09:10:45;;;;;;;3.73;1.30;;;;;;;;;;4991972;28;20202;-56
2022/07/23 09:13:23;;;;;;;5.43;1.50;;;;;;;;;;4993690;28;20197;-57
2022/07/23 09:15:50;;;;;;;2.27;1.20;;;;;;;;;;4993747;28;20199;-55
2022/07/23 09:18:16;;;;;;;2.00;1.27;;;;;;;;;;4993679;28;20202;-55
2022/07/23 09:20:43;;;;;;;5.33;1.20;;;;;;;;;;4993541;28;20202;-55
2022/07/23 09:23:09;;;;;;;2.40;1.20;;;;;;;;;;4993403;28;20268;-56
2022/07/23 09:25:35;;;;;;;2.23;1.27;;;;;;;;;;4993310;28;20199;-55
2022/07/23 09:28:02;;;;;;;;;;;;;;;;;;4993998;28;20061;-55
2022/07/23 09:30:28;;;;;;;;;;;;;;;;;;4993828;28;20337;-54
2022/07/23 09:32:54;;;;;;;;;;;;;;;;;;4993719;28;20361;-56
2022/07/23 09:35:20;;;;;;;;;;;;;;;;;;4993729;28;19952;-55
2022/07/23 09:37:46;;;;;;;;;;;;;;;;;;4993953;28;19912;-57
2022/07/23 09:40:13;;;;;;;;;;;;;;;;;;4993620;28;20338;-57
2022/07/23 09:42:38;;;;;;;;;;;;;;;;;;4993910;28;19914;-57
2022/07/23 09:45:04;;;;;;;;;;;;;;;;;;4993704;28;20383;-57
2022/07/23 09:47:30;;;;;;;;;;;;;;;;;;4993575;28;20287;-55
2022/07/23 09:49:56;;;;;;;;;;;;;;;;;;4993800;28;19912;-55
2022/07/23 09:52:22;;;;;;;;;;;;;;;;;;4993770;28;19959;-57
2022/07/23 09:54:48;;;;;;;;;;;;;;;;;;4993750;28;20303;-54
2022/07/23 09:57:14;;;;;;;;;;;;;;;;;;4993657;28;19928;-55
2022/07/23 09:59:40;;;;;;;;;;;;;;;;;;4993531;28;19906;-56
2022/07/23 10:02:06;;;;;;;;;;;;;;;;;;4993482;28;19920;-56
2022/07/23 10:04:32;;;;;;;;;;;;;;;;;;4993406;28;19928;-57
2022/07/23 10:06:58;;;;;;;;;;;;;;;;;;4993538;28;19913;-57
2022/07/23 10:09:24;;;;;;;;;;;;;;;;;;4991831;28;20001;-57
2022/07/23 10:11:50;;;;;;;;;;;;;;;;;;4993381;28;19960;-57
2022/07/23 10:14:15;;;;;;;;;;;;;;;;;;4991751;28;20053;-56
2022/07/23 10:16:41;;;;;;;;;;;;;;;;;;4993206;28;19910;-56
2022/07/23 10:19:07;;;;;;;;;;;;;;;;;;4993346;28;19913;-56
2022/07/23 10:21:33;;;;;;;;;;;;;;;;;;4993207;28;19909;-56
2022/07/23 10:23:59;;;;;;;;;;;;;;;;;;4993339;28;19913;-56
2022/07/23 10:26:25;;;;;;;;;;;;;;;;;;4993112;28;20380;-56
2022/07/23 10:28:51;;;;;;;;;;;;;;;;;;4993307;28;20400;-56
2022/07/23 10:31:16;;;;;;;;;;;;;;;;;;4993314;28;20269;-56
2022/07/23 10:33:42;;;;;;;;;;;;;;;;;;4993085;28;19912;-56
2022/07/23 10:36:08;;;;;;;;;;;;;;;;;;4993207;28;19902;-56
2022/07/23 10:38:34;;;;;;;;;;;;;;;;;;4993133;28;19913;-56
2022/07/23 10:41:00;;;;;;;;;;;;;;;;;;4993082;28;20419;-56
2022/07/23 10:43:26;;;;;;;;;;;;;;;;;;4992842;28;20259;-56
2022/07/23 10:45:52;;;;;;;;;;;;;;;;;;4992305;28;19956;-56
2022/07/23 10:48:18;;;;;;;;;;;;;;;;;;4991092;28;19905;-57
2022/07/23 10:50:43;;;;;;;;;;;;;;;;;;4992722;28;19906;-57
2022/07/23 10:53:12;;;;;;;;;;;;;;;;;;4992907;28;19952;-56
2022/07/23 10:55:37;;;;;;;;;;;;;;;;;;4992293;28;20277;-56
2022/07/23 10:58:03;;;;;;;;;;;;;;;;;;4992945;28;19906;-56
2022/07/23 11:00:29;;;;;;;;;;;;;;;;;;4993017;28;20280;-56
2022/07/23 11:02:55;;;;;;;;;;;;;;;;;;4992840;28;19921;-56
2022/07/23 11:05:21;;;;;;;;;;;;;;;;;;4992815;28;20536;-56
2022/07/23 11:08:14;;;;;;;1.83;0.90;;;;;;;;;;4992404;28;20193;-56
2022/07/23 11:10:43;;;;;;;3.27;1.00;;;;;;;;;;4992218;28;20197;-56
2022/07/23 11:13:27;;;;;;;2.23;1.00;;;;;;;;;;4992261;28;20281;-57
2022/07/23 11:16:14;;;;;;;1.17;0.80;;;;;;;;;;4991753;28;20194;-56
2022/07/23 11:18:53;;;;;;;1.67;0.90;;;;;;;;;;4992083;28;20202;-56
2022/07/23 11:21:40;;;;;;;0.77;0.63;;;;;;;;;;4992203;28;20218;-56
2022/07/23 11:24:07;;;;;;;1.53;0.90;;;;;;;;;;4992313;28;20204;-57
2022/07/23 11:26:48;;;;;;;2.10;0.93;;;;;;;;;;4992165;28;20205;-57
2022/07/23 11:29:35;;;;;;;2.33;1.10;;;;;;;;;;4992310;28;20296;-56
2022/07/23 11:32:02;;;;;;;2.40;1.20;;;;;;;;;;4992078;28;20571;-56
2022/07/23 11:34:30;;;;;;;1.63;1.00;;;;;;;;;;4992165;28;20202;-56
2022/07/23 11:36:56;;;;;;;7.73;1.10;;;;;;;;;;4991880;28;20627;-56
2022/07/23 11:39:25;;;;;;;1.47;0.97;;;;;;;;;;4991818;28;20233;-56
2022/07/23 11:41:52;;;;;;;2.83;1.20;;;;;;;;;;4991710;28;20233;-56
2022/07/23 11:44:25;;;;;;;3.20;1.10;;;;;;;;;;4992104;28;20222;-56
2022/07/23 11:46:55;;;;;;;1.13;0.77;;;;;;;;;;4991629;28;20253;-56
2022/07/23 11:49:21;;;;;;;2.97;1.20;;;;;;;;;;4992077;28;20257;-56
2022/07/23 11:51:47;;;;;;;2.03;1.00;;;;;;;;;;4991939;28;20660;-56
2022/07/23 11:54:13;;;;;;;3.27;1.20;;;;;;;;;;4992008;28;20209;-56
2022/07/23 11:56:54;;;;;;;1.33;1.00;;;;;;;;;;4991888;28;20573;-57
2022/07/23 11:59:21;;;;;;;2.00;0.90;;;;;;;;;;4992028;28;20209;-57
2022/07/23 12:01:56;;;;;;;1.67;0.97;;;;;;;;;;4991631;28;20309;-56
2022/07/23 12:04:22;;;;;;;1.83;0.97;;;;;;;;;;4991980;28;20295;-56
2022/07/23 12:06:48;;;;;;;1.70;0.80;;;;;;;;;;4991827;28;20227;-56
2022/07/23 12:09:14;;;;;;;2.97;1.10;;;;;;;;;;4995497;28;20670;-56
2022/07/23 12:11:56;;;;;;;1.17;0.80;;;;;;;;;;4995029;28;20225;-57
2022/07/23 12:14:23;;;;;;;2.10;0.90;;;;;;;;;;4994908;28;20221;-57
2022/07/23 12:17:04;;;;;;;2.47;0.90;;;;;;;;;;4994752;28;20693;-57
2022/07/23 12:19:30;;;;;;;2.67;1.20;;;;;;;;;;4994801;28;20266;-57
2022/07/23 12:21:56;;;;;;;1.60;0.83;;;;;;;;;;4994929;28;20224;-57
2022/07/23 12:24:22;;;;;;;1.83;0.83;;;;;;;;;;4994930;28;20570;-56
2022/07/23 12:27:03;;;;;;;0.90;0.70;;;;;;;;;;4994969;28;20547;-57
2022/07/23 12:29:36;;;;;;;1.37;0.73;;;;;;;;;;4994752;28;20753;-57
2022/07/23 12:32:02;;;;;;;3.17;0.80;;;;;;;;;;4995121;28;20209;-58
2022/07/23 12:34:28;;;;;;;1.67;0.80;;;;;;;;;;4994984;28;20253;-58
2022/07/23 12:36:53;;;;;;;2.07;1.00;;;;;;;;;;4994801;28;20204;-57
2022/07/23 12:39:29;;;;;;;1.73;0.80;;;;;;;;;;4994885;28;20254;-56
2022/07/23 12:41:56;;;;;;;2.73;1.00;;;;;;;;;;4994667;28;20289;-56
2022/07/23 12:44:22;;;;;;;1.83;1.20;;;;;;;;;;4994880;28;20240;-56
2022/07/23 12:46:52;;;;;;;2.00;0.80;;;;;;;;;;4994370;28;20330;-56
2022/07/23 12:49:26;;;;;;;1.50;0.80;;;;;;;;;;4994724;28;20230;-58
2022/07/23 12:51:52;;;;;;;2.23;1.03;;;;;;;;;;4994559;28;20719;-56
2022/07/23 12:54:18;;;;;;;4.23;1.17;;;;;;;;;;4994550;28;20206;-57
2022/07/23 12:56:45;;;;;;;2.20;1.00;;;;;;;;;;4994192;28;20215;-56
2022/07/23 12:59:15;;;;;;;3.17;1.20;;;;;;;;;;4994502;28;20200;-57
2022/07/23 13:01:41;;;;;;;1.33;0.93;;;;;;;;;;4994166;28;20223;-56
2022/07/23 13:04:10;;;;;;;1.20;0.80;;;;;;;;;;4994609;28;20207;-56
2022/07/23 13:06:37;;;;;;;2.80;1.00;;;;;;;;;;4994150;28;20211;-57
2022/07/23 13:09:03;;;;;;;1.60;1.03;;;;;;;;;;4994163;28;20640;-56
2022/07/23 13:11:30;;;;;;;1.63;0.90;;;;;;;;;;4994155;28;20196;-55
2022/07/23 13:13:55;;;;;;;1.77;0.70;;;;;;;;;;4993464;28;20203;-55
2022/07/23 13:16:21;;;;;;;1.63;0.80;;;;;;;;;;4993792;28;20284;-56
2022/07/23 13:18:48;;;;;;;1.17;0.90;;;;;;;;;;4992891;28;20230;-55
2022/07/23 13:21:15;;;;;;;2.13;0.80;;;;;;;;;;4993978;28;20685;-55
2022/07/23 13:23:42;;;;;;;1.13;0.83;;;;;;;;;;4993840;28;20673;-55
2022/07/23 13:26:08;;;;;;;4.43;1.07;;;;;;;;;;4994000;28;20206;-55
2022/07/23 13:28:34;;;;;;;1.00;0.87;;;;;;;;;;4993814;28;20285;-55
2022/07/23 13:31:00;;;;;;;1.10;0.80;;;;;;;;;;4994042;28;20292;-55
2022/07/23 13:33:26;;;;;;;3.33;0.90;;;;;;;;;;4993716;28;20211;-55
2022/07/23 13:35:52;;;;;;;1.37;0.80;;;;;;;;;;4993501;28;20216;-55
2022/07/23 13:38:21;;;;;;;1.50;0.83;;;;;;;;;;4993875;28;20203;-55
2022/07/23 13:40:48;;;;;;;1.60;0.80;;;;;;;;;;4993743;28;20202;-55
2022/07/23 13:43:15;;;;;;;2.23;0.80;;;;;;;;;;4993695;28;20253;-55
2022/07/23 13:45:42;;;;;;;4.70;0.87;;;;;;;;;;4993324;28;20210;-55
2022/07/23 13:48:08;;;;;;;4.43;0.70;;;;;;;;;;4993512;28;20195;-55
2022/07/23 13:50:34;;;;;;;2.17;0.93;;;;;;;;;;4993516;28;20225;-55
2022/07/23 13:53:01;;;;;;;4.67;0.90;;;;;;;;;;4991751;28;20194;-55
2022/07/23 13:55:28;;;;;;;2.63;0.73;;;;;;;;;;4993429;28;20195;-55
2022/07/23 13:57:54;;;;;;;0.67;0.67;;;;;;;;;;4993112;28;20207;-56
2022/07/23 14:00:20;;;;;;;2.10;1.03;;;;;;;;;;4993050;28;20206;-58
2022/07/23 14:02:46;;;;;;;3.17;1.10;;;;;;;;;;4993077;28;20230;-56
2022/07/23 14:05:12;;;;;;;2.73;1.33;;;;;;;;;;4993114;28;20784;-56
2022/07/23 14:07:39;;;;;;;2.50;0.87;;;;;;;;;;4993139;28;20280;-56
2022/07/23 14:10:06;;;;;;;1.77;0.80;;;;;;;;;;4992980;28;20236;-56
2022/07/23 14:12:33;;;;;;;1.63;0.60;;;;;;;;;;4993185;28;20254;-56
2022/07/23 14:14:59;;;;;;;1.00;0.50;;;;;;;;;;4993033;28;20212;-56
2022/07/23 14:17:25;;;;;;;0.80;0.70;;;;;;;;;;4992916;28;20205;-56
2022/07/23 14:19:51;;;;;;;1.33;0.90;;;;;;;;;;4992894;28;20209;-56
2022/07/23 14:22:17;;;;;;;1.97;0.77;;;;;;;;;;4992899;28;20714;-57
2022/07/23 14:24:43;;;;;;;0.87;0.80;;;;;;;;;;4992883;28;20200;-56
2022/07/23 14:27:10;;;;;;;2.30;0.70;;;;;;;;;;4992827;28;20693;-55
2022/07/23 14:29:37;;;;;;;1.63;0.90;;;;;;;;;;4992846;28;20204;-58
2022/07/23 14:32:03;;;;;;;1.57;0.70;;;;;;;;;;4991748;28;20203;-56
2022/07/23 14:34:29;;;;;;;1.13;0.70;;;;;;;;;;4992806;28;20627;-55
2022/07/23 14:36:55;;;;;;;0.73;0.60;;;;;;;;;;4992600;28;20253;-57
2022/07/23 14:39:21;;;;;;;2.27;0.90;;;;;;;;;;4992771;28;20203;-56
2022/07/23 14:41:47;;;;;;;0.50;0.50;;;;;;;;;;4992530;28;20587;-56
2022/07/23 14:44:13;;;;;;;3.33;1.00;;;;;;;;;;4992751;28;20223;-56
2022/07/23 14:46:40;;;;;;;1.77;0.87;;;;;;;;;;4992261;28;20250;-56
2022/07/23 14:49:06;;;;;;;1.57;0.90;;;;;;;;;;4992616;28;20200;-57
2022/07/23 14:51:32;;;;;;;0.87;0.60;;;;;;;;;;4992599;28;20569;-56
2022/07/23 14:53:58;;;;;;;4.17;0.70;;;;;;;;;;4992499;28;20208;-57